sensor_id;sensor_type;location;lat;lon;timestamp;temperature;humidity
21171;DHT22;10743;52.160;20.910;2024-02-15T00:00:18;23.40;28.90
21171;DHT22;10743;52.160;20.910;2024-02-15T00:02:45;23.30;28.90
21171;DHT22;10743;52.160;20.910;2024-02-15T00:05:12;23.30;28.90
21171;DHT22;10743;52.160;20.910;2024-02-15T00:07:41;23.30;29.00
21171;DHT22;10743;52.160;20.910;2024-02-15T00:10:08;23.30;28.90
21171;DHT22;10743;52.160;20.910;2024-02-15T00:12:36;23.30;29.00
21171;DHT22;10743;52.160;20.910;2024-02-15T00:15:04;23.30;29.00
21171;DHT22;10743;52.160;20.910;2024-02-15T00:17:31;23.20;29.20
21171;DHT22;10743;52.160;20.910;2024-02-15T00:19:59;23.30;29.00
21171;DHT22;10743;52.160;20.910;2024-02-15T00:22:26;23.30;28.90
21171;DHT22;10743;52.160;20.910;2024-02-15T00:24:53;23.30;28.90
21171;DHT22;10743;52.160;20.910;2024-02-15T00:27:20;23.20;28.90
21171;DHT22;10743;52.160;20.910;2024-02-15T00:29:48;23.30;29.00
21171;DHT22;10743;52.160;20.910;2024-02-15T00:32:15;23.20;29.00
21171;DHT22;10743;52.160;20.910;2024-02-15T00:34:42;23.30;29.00
21171;DHT22;10743;52.160;20.910;2024-02-15T00:37:10;23.30;29.00
21171;DHT22;10743;52.160;20.910;2024-02-15T00:39:37;23.30;29.00
21171;DHT22;10743;52.160;20.910;2024-02-15T00:42:05;23.30;29.00
21171;DHT22;10743;52.160;20.910;2024-02-15T00:44:35;23.30;29.00
21171;DHT22;10743;52.160;20.910;2024-02-15T00:47:04;23.20;29.00
21171;DHT22;10743;52.160;20.910;2024-02-15T00:49:31;23.20;29.20
21171;DHT22;10743;52.160;20.910;2024-02-15T00:51:59;23.20;29.30
21171;DHT22;10743;52.160;20.910;2024-02-15T00:54:26;23.20;29.10
21171;DHT22;10743;52.160;20.910;2024-02-15T00:56:53;23.30;29.10
21171;DHT22;10743;52.160;20.910;2024-02-15T00:59:20;23.30;29.00
21171;DHT22;10743;52.160;20.910;2024-02-15T01:01:47;23.30;29.10
21171;DHT22;10743;52.160;20.910;2024-02-15T01:04:15;23.30;29.00
21171;DHT22;10743;52.160;20.910;2024-02-15T01:06:42;23.40;28.90
21171;DHT22;10743;52.160;20.910;2024-02-15T01:09:09;23.40;28.90
21171;DHT22;10743;52.160;20.910;2024-02-15T01:11:36;23.40;28.80
21171;DHT22;10743;52.160;20.910;2024-02-15T01:14:04;23.40;28.70
21171;DHT22;10743;52.160;20.910;2024-02-15T01:16:31;23.40;28.80
21171;DHT22;10743;52.160;20.910;2024-02-15T01:18:58;23.50;29.30
21171;DHT22;10743;52.160;20.910;2024-02-15T01:21:25;23.40;28.80
21171;DHT22;10743;52.160;20.910;2024-02-15T01:23:53;23.40;28.80
21171;DHT22;10743;52.160;20.910;2024-02-15T01:26:22;23.40;28.70
21171;DHT22;10743;52.160;20.910;2024-02-15T01:28:50;23.40;28.80
21171;DHT22;10743;52.160;20.910;2024-02-15T01:31:17;23.40;28.70
21171;DHT22;10743;52.160;20.910;2024-02-15T01:33:44;23.40;28.90
21171;DHT22;10743;52.160;20.910;2024-02-15T01:36:17;23.30;28.90
21171;DHT22;10743;52.160;20.910;2024-02-15T01:38:44;23.30;28.90
21171;DHT22;10743;52.160;20.910;2024-02-15T01:41:12;23.30;29.00
21171;DHT22;10743;52.160;20.910;2024-02-15T01:43:43;23.20;29.00
21171;DHT22;10743;52.160;20.910;2024-02-15T01:46:12;23.30;29.00
21171;DHT22;10743;52.160;20.910;2024-02-15T01:48:41;23.40;28.90
21171;DHT22;10743;52.160;20.910;2024-02-15T01:51:11;23.40;28.90
21171;DHT22;10743;52.160;20.910;2024-02-15T01:53:38;23.30;28.90
21171;DHT22;10743;52.160;20.910;2024-02-15T01:56:07;23.40;29.00
21171;DHT22;10743;52.160;20.910;2024-02-15T01:58:35;23.30;29.00
21171;DHT22;10743;52.160;20.910;2024-02-15T02:01:03;23.30;29.00
21171;DHT22;10743;52.160;20.910;2024-02-15T02:03:31;23.40;28.90
21171;DHT22;10743;52.160;20.910;2024-02-15T02:05:58;23.40;28.90
21171;DHT22;10743;52.160;20.910;2024-02-15T02:08:27;23.40;28.90
21171;DHT22;10743;52.160;20.910;2024-02-15T02:10:54;23.40;28.90
21171;DHT22;10743;52.160;20.910;2024-02-15T02:13:21;23.30;28.90
21171;DHT22;10743;52.160;20.910;2024-02-15T02:15:48;23.30;29.00
21171;DHT22;10743;52.160;20.910;2024-02-15T02:18:15;23.40;29.00
21171;DHT22;10743;52.160;20.910;2024-02-15T02:20:43;23.40;28.90
21171;DHT22;10743;52.160;20.910;2024-02-15T02:23:14;23.30;29.00
21171;DHT22;10743;52.160;20.910;2024-02-15T02:25:43;23.30;29.00
21171;DHT22;10743;52.160;20.910;2024-02-15T02:28:11;23.40;28.90
21171;DHT22;10743;52.160;20.910;2024-02-15T02:30:38;23.40;28.90
21171;DHT22;10743;52.160;20.910;2024-02-15T02:33:12;23.40;28.90
21171;DHT22;10743;52.160;20.910;2024-02-15T02:35:47;23.30;29.00
21171;DHT22;10743;52.160;20.910;2024-02-15T02:38:15;23.30;29.00
21171;DHT22;10743;52.160;20.910;2024-02-15T02:40:42;23.40;29.00
21171;DHT22;10743;52.160;20.910;2024-02-15T02:43:09;23.40;29.00
21171;DHT22;10743;52.160;20.910;2024-02-15T02:45:37;23.40;28.90
21171;DHT22;10743;52.160;20.910;2024-02-15T02:48:04;23.30;29.00
21171;DHT22;10743;52.160;20.910;2024-02-15T02:50:32;23.30;29.10
21171;DHT22;10743;52.160;20.910;2024-02-15T02:52:59;23.30;29.10
21171;DHT22;10743;52.160;20.910;2024-02-15T02:55:26;23.20;29.20
21171;DHT22;10743;52.160;20.910;2024-02-15T02:57:54;23.20;29.20
21171;DHT22;10743;52.160;20.910;2024-02-15T03:00:24;23.20;29.30
21171;DHT22;10743;52.160;20.910;2024-02-15T03:02:51;23.20;29.30
21171;DHT22;10743;52.160;20.910;2024-02-15T03:05:18;23.20;29.40
21171;DHT22;10743;52.160;20.910;2024-02-15T03:07:48;23.20;29.30
21171;DHT22;10743;52.160;20.910;2024-02-15T03:10:15;23.30;29.20
21171;DHT22;10743;52.160;20.910;2024-02-15T03:12:43;23.30;29.20
21171;DHT22;10743;52.160;20.910;2024-02-15T03:15:15;23.30;29.20
21171;DHT22;10743;52.160;20.910;2024-02-15T03:17:47;23.30;29.10
21171;DHT22;10743;52.160;20.910;2024-02-15T03:20:15;23.30;29.20
21171;DHT22;10743;52.160;20.910;2024-02-15T03:22:57;23.30;29.20
21171;DHT22;10743;52.160;20.910;2024-02-15T03:25:25;23.20;29.20
21171;DHT22;10743;52.160;20.910;2024-02-15T03:27:57;23.20;29.30
21171;DHT22;10743;52.160;20.910;2024-02-15T03:30:26;23.20;29.40
21171;DHT22;10743;52.160;20.910;2024-02-15T03:32:54;23.20;29.40
21171;DHT22;10743;52.160;20.910;2024-02-15T03:35:23;23.10;29.40
21171;DHT22;10743;52.160;20.910;2024-02-15T03:37:52;23.10;29.40
21171;DHT22;10743;52.160;20.910;2024-02-15T03:40:20;23.20;29.50
21171;DHT22;10743;52.160;20.910;2024-02-15T03:42:53;23.10;29.50
21171;DHT22;10743;52.160;20.910;2024-02-15T03:45:20;23.10;29.60
21171;DHT22;10743;52.160;20.910;2024-02-15T03:47:53;23.10;29.60
21171;DHT22;10743;52.160;20.910;2024-02-15T03:50:22;23.10;29.60
21171;DHT22;10743;52.160;20.910;2024-02-15T03:52:50;23.10;29.70
21171;DHT22;10743;52.160;20.910;2024-02-15T03:55:18;23.10;30.00
21171;DHT22;10743;52.160;20.910;2024-02-15T03:57:45;23.10;29.80
21171;DHT22;10743;52.160;20.910;2024-02-15T04:00:14;23.00;29.80
21171;DHT22;10743;52.160;20.910;2024-02-15T04:02:48;23.00;29.90
21171;DHT22;10743;52.160;20.910;2024-02-15T04:05:16;23.00;29.90
21171;DHT22;10743;52.160;20.910;2024-02-15T04:07:45;23.00;29.90
21171;DHT22;10743;52.160;20.910;2024-02-15T04:10:12;23.00;30.00
21171;DHT22;10743;52.160;20.910;2024-02-15T04:12:39;23.00;30.00
21171;DHT22;10743;52.160;20.910;2024-02-15T04:15:09;23.00;29.90
21171;DHT22;10743;52.160;20.910;2024-02-15T04:17:40;23.00;30.00
21171;DHT22;10743;52.160;20.910;2024-02-15T04:20:10;23.10;30.00
21171;DHT22;10743;52.160;20.910;2024-02-15T04:22:39;23.10;30.00
21171;DHT22;10743;52.160;20.910;2024-02-15T04:25:09;23.10;30.00
21171;DHT22;10743;52.160;20.910;2024-02-15T04:27:38;23.10;29.90
21171;DHT22;10743;52.160;20.910;2024-02-15T04:30:06;23.10;30.40
21171;DHT22;10743;52.160;20.910;2024-02-15T04:32:35;23.10;29.90
21171;DHT22;10743;52.160;20.910;2024-02-15T04:35:04;23.10;29.80
21171;DHT22;10743;52.160;20.910;2024-02-15T04:37:35;23.10;29.90
21171;DHT22;10743;52.160;20.910;2024-02-15T04:40:04;23.10;29.90
21171;DHT22;10743;52.160;20.910;2024-02-15T04:42:37;23.10;30.00
21171;DHT22;10743;52.160;20.910;2024-02-15T04:45:07;23.00;30.00
21171;DHT22;10743;52.160;20.910;2024-02-15T04:47:39;23.00;30.10
21171;DHT22;10743;52.160;20.910;2024-02-15T04:50:10;23.00;30.10
21171;DHT22;10743;52.160;20.910;2024-02-15T04:52:37;23.00;30.10
21171;DHT22;10743;52.160;20.910;2024-02-15T04:55:05;23.00;30.10
21171;DHT22;10743;52.160;20.910;2024-02-15T04:57:32;23.00;30.10
21171;DHT22;10743;52.160;20.910;2024-02-15T05:00:03;23.00;30.10
21171;DHT22;10743;52.160;20.910;2024-02-15T05:02:37;23.00;30.10
21171;DHT22;10743;52.160;20.910;2024-02-15T05:05:08;23.10;30.00
21171;DHT22;10743;52.160;20.910;2024-02-15T05:07:35;23.10;30.00
21171;DHT22;10743;52.160;20.910;2024-02-15T05:10:07;23.10;30.00
21171;DHT22;10743;52.160;20.910;2024-02-15T05:12:37;23.00;30.00
21171;DHT22;10743;52.160;20.910;2024-02-15T05:15:04;23.00;30.00
21171;DHT22;10743;52.160;20.910;2024-02-15T05:17:39;23.00;30.00
21171;DHT22;10743;52.160;20.910;2024-02-15T05:20:10;23.10;30.00
21171;DHT22;10743;52.160;20.910;2024-02-15T05:22:40;23.10;30.00
21171;DHT22;10743;52.160;20.910;2024-02-15T05:25:14;23.10;30.60
21171;DHT22;10743;52.160;20.910;2024-02-15T05:27:42;23.10;30.00
21171;DHT22;10743;52.160;20.910;2024-02-15T05:30:11;23.10;30.00
21171;DHT22;10743;52.160;20.910;2024-02-15T05:32:39;23.10;30.00
21171;DHT22;10743;52.160;20.910;2024-02-15T05:35:11;23.20;30.00
21171;DHT22;10743;52.160;20.910;2024-02-15T05:37:38;23.20;30.00
21171;DHT22;10743;52.160;20.910;2024-02-15T05:40:06;23.20;30.00
21171;DHT22;10743;52.160;20.910;2024-02-15T05:42:34;23.10;30.00
21171;DHT22;10743;52.160;20.910;2024-02-15T05:47:54;23.20;30.00
21171;DHT22;10743;52.160;20.910;2024-02-15T05:50:22;23.30;30.10
21171;DHT22;10743;52.160;20.910;2024-02-15T05:52:51;23.20;30.10
21171;DHT22;10743;52.160;20.910;2024-02-15T05:55:24;23.20;30.40
21171;DHT22;10743;52.160;20.910;2024-02-15T05:57:53;23.10;30.40
21171;DHT22;10743;52.160;20.910;2024-02-15T06:00:21;23.10;30.70
21171;DHT22;10743;52.160;20.910;2024-02-15T06:02:49;23.00;30.90
21171;DHT22;10743;52.160;20.910;2024-02-15T06:05:18;23.10;31.30
21171;DHT22;10743;52.160;20.910;2024-02-15T06:07:45;23.10;31.30
21171;DHT22;10743;52.160;20.910;2024-02-15T06:10:14;23.10;31.50
21171;DHT22;10743;52.160;20.910;2024-02-15T06:12:42;23.10;31.70
21171;DHT22;10743;52.160;20.910;2024-02-15T06:15:10;23.10;31.90
21171;DHT22;10743;52.160;20.910;2024-02-15T06:17:43;23.20;31.90
21171;DHT22;10743;52.160;20.910;2024-02-15T06:20:15;23.10;32.00
21171;DHT22;10743;52.160;20.910;2024-02-15T06:22:45;23.10;32.20
21171;DHT22;10743;52.160;20.910;2024-02-15T06:25:13;23.00;32.40
21171;DHT22;10743;52.160;20.910;2024-02-15T06:27:41;23.00;32.50
21171;DHT22;10743;52.160;20.910;2024-02-15T06:30:10;22.90;32.70
21171;DHT22;10743;52.160;20.910;2024-02-15T06:32:57;22.90;32.90
21171;DHT22;10743;52.160;20.910;2024-02-15T06:35:43;22.90;33.10
21171;DHT22;10743;52.160;20.910;2024-02-15T06:38:28;23.00;33.10
21171;DHT22;10743;52.160;20.910;2024-02-15T06:41:15;22.90;33.30
21171;DHT22;10743;52.160;20.910;2024-02-15T06:43:42;23.00;33.30
21171;DHT22;10743;52.160;20.910;2024-02-15T06:46:09;22.90;34.10
21171;DHT22;10743;52.160;20.910;2024-02-15T06:48:37;22.90;33.60
21171;DHT22;10743;52.160;20.910;2024-02-15T06:51:05;22.90;33.70
21171;DHT22;10743;52.160;20.910;2024-02-15T06:53:34;22.90;34.00
21171;DHT22;10743;52.160;20.910;2024-02-15T06:56:02;22.90;34.10
21171;DHT22;10743;52.160;20.910;2024-02-15T06:58:29;22.90;34.10
21171;DHT22;10743;52.160;20.910;2024-02-15T07:00:56;22.90;34.30
21171;DHT22;10743;52.160;20.910;2024-02-15T07:03:23;22.90;34.40
21171;DHT22;10743;52.160;20.910;2024-02-15T07:05:50;22.90;34.40
21171;DHT22;10743;52.160;20.910;2024-02-15T07:08:17;22.90;34.60
21171;DHT22;10743;52.160;20.910;2024-02-15T07:10:44;22.90;34.50
21171;DHT22;10743;52.160;20.910;2024-02-15T07:13:12;22.90;34.50
21171;DHT22;10743;52.160;20.910;2024-02-15T07:15:39;22.90;34.70
21171;DHT22;10743;52.160;20.910;2024-02-15T07:18:06;22.90;34.90
21171;DHT22;10743;52.160;20.910;2024-02-15T07:20:34;22.90;34.90
21171;DHT22;10743;52.160;20.910;2024-02-15T07:23:01;22.80;35.00
21171;DHT22;10743;52.160;20.910;2024-02-15T07:25:28;22.80;35.40
21171;DHT22;10743;52.160;20.910;2024-02-15T07:27:55;22.80;35.20
21171;DHT22;10743;52.160;20.910;2024-02-15T07:30:23;22.80;35.40
21171;DHT22;10743;52.160;20.910;2024-02-15T07:32:52;22.70;35.50
21171;DHT22;10743;52.160;20.910;2024-02-15T07:35:19;22.80;35.60
21171;DHT22;10743;52.160;20.910;2024-02-15T07:37:53;22.80;35.60
21171;DHT22;10743;52.160;20.910;2024-02-15T07:40:25;22.70;35.70
21171;DHT22;10743;52.160;20.910;2024-02-15T07:42:57;22.70;35.80
21171;DHT22;10743;52.160;20.910;2024-02-15T07:45:27;22.70;35.80
21171;DHT22;10743;52.160;20.910;2024-02-15T07:47:55;22.70;36.00
21171;DHT22;10743;52.160;20.910;2024-02-15T07:50:22;22.70;36.00
21171;DHT22;10743;52.160;20.910;2024-02-15T07:52:49;22.60;36.10
21171;DHT22;10743;52.160;20.910;2024-02-15T07:55:17;22.60;36.20
21171;DHT22;10743;52.160;20.910;2024-02-15T07:57:45;22.60;36.50
21171;DHT22;10743;52.160;20.910;2024-02-15T08:00:15;22.70;36.30
21171;DHT22;10743;52.160;20.910;2024-02-15T08:02:43;22.70;36.40
21171;DHT22;10743;52.160;20.910;2024-02-15T08:05:12;22.70;36.50
21171;DHT22;10743;52.160;20.910;2024-02-15T08:07:44;22.70;36.40
21171;DHT22;10743;52.160;20.910;2024-02-15T08:10:12;22.80;36.30
21171;DHT22;10743;52.160;20.910;2024-02-15T08:12:45;22.70;36.40
21171;DHT22;10743;52.160;20.910;2024-02-15T08:15:12;22.70;36.40
21171;DHT22;10743;52.160;20.910;2024-02-15T08:17:45;22.70;36.30
21171;DHT22;10743;52.160;20.910;2024-02-15T08:20:15;22.70;37.10
21171;DHT22;10743;52.160;20.910;2024-02-15T08:22:49;22.80;36.40
21171;DHT22;10743;52.160;20.910;2024-02-15T08:25:16;22.70;36.30
21171;DHT22;10743;52.160;20.910;2024-02-15T08:27:47;22.80;36.40
21171;DHT22;10743;52.160;20.910;2024-02-15T08:30:17;22.80;36.30
21171;DHT22;10743;52.160;20.910;2024-02-15T08:32:50;22.80;36.40
21171;DHT22;10743;52.160;20.910;2024-02-15T08:35:20;22.80;36.40
21171;DHT22;10743;52.160;20.910;2024-02-15T08:37:47;22.80;36.50
21171;DHT22;10743;52.160;20.910;2024-02-15T08:40:16;22.70;36.60
21171;DHT22;10743;52.160;20.910;2024-02-15T08:42:45;22.70;36.70
21171;DHT22;10743;52.160;20.910;2024-02-15T08:45:12;22.70;36.70
21171;DHT22;10743;52.160;20.910;2024-02-15T08:47:41;22.70;36.80
21171;DHT22;10743;52.160;20.910;2024-02-15T08:50:10;22.80;36.90
21171;DHT22;10743;52.160;20.910;2024-02-15T08:52:39;22.80;36.80
21171;DHT22;10743;52.160;20.910;2024-02-15T08:55:10;22.80;36.80
21171;DHT22;10743;52.160;20.910;2024-02-15T08:57:41;22.90;36.50
21171;DHT22;10743;52.160;20.910;2024-02-15T09:00:11;23.00;36.50
21171;DHT22;10743;52.160;20.910;2024-02-15T09:02:44;23.10;36.40
21171;DHT22;10743;52.160;20.910;2024-02-15T09:05:12;23.00;36.50
21171;DHT22;10743;52.160;20.910;2024-02-15T09:07:42;23.00;36.60
21171;DHT22;10743;52.160;20.910;2024-02-15T09:10:10;23.00;36.60
21171;DHT22;10743;52.160;20.910;2024-02-15T09:12:39;23.10;36.60
21171;DHT22;10743;52.160;20.910;2024-02-15T09:15:08;23.10;36.60
21171;DHT22;10743;52.160;20.910;2024-02-15T09:17:37;23.10;36.60
21171;DHT22;10743;52.160;20.910;2024-02-15T09:20:09;23.10;36.60
21171;DHT22;10743;52.160;20.910;2024-02-15T09:22:51;23.20;36.40
21171;DHT22;10743;52.160;20.910;2024-02-15T09:25:19;23.20;36.40
21171;DHT22;10743;52.160;20.910;2024-02-15T09:27:46;23.30;36.40
21171;DHT22;10743;52.160;20.910;2024-02-15T09:30:13;23.30;36.40
21171;DHT22;10743;52.160;20.910;2024-02-15T09:32:42;23.30;36.40
21171;DHT22;10743;52.160;20.910;2024-02-15T09:35:11;23.40;36.40
21171;DHT22;10743;52.160;20.910;2024-02-15T09:37:44;23.40;36.20
21171;DHT22;10743;52.160;20.910;2024-02-15T09:40:13;23.50;36.20
21171;DHT22;10743;52.160;20.910;2024-02-15T09:42:47;23.50;36.30
21171;DHT22;10743;52.160;20.910;2024-02-15T09:45:15;23.50;36.40
21171;DHT22;10743;52.160;20.910;2024-02-15T09:47:44;23.50;36.50
21171;DHT22;10743;52.160;20.910;2024-02-15T09:50:14;23.50;36.60
21171;DHT22;10743;52.160;20.910;2024-02-15T09:52:52;23.40;36.70
21171;DHT22;10743;52.160;20.910;2024-02-15T09:55:24;23.40;37.00
21171;DHT22;10743;52.160;20.910;2024-02-15T09:57:52;23.50;37.10
21171;DHT22;10743;52.160;20.910;2024-02-15T10:00:19;23.40;37.10
21171;DHT22;10743;52.160;20.910;2024-02-15T10:02:50;23.50;37.20
21171;DHT22;10743;52.160;20.910;2024-02-15T10:05:20;23.50;37.10
21171;DHT22;10743;52.160;20.910;2024-02-15T10:07:48;23.50;37.10
21171;DHT22;10743;52.160;20.910;2024-02-15T10:10:15;23.50;37.90
21171;DHT22;10743;52.160;20.910;2024-02-15T10:12:44;23.50;37.20
21171;DHT22;10743;52.160;20.910;2024-02-15T10:15:44;23.60;37.40
21171;DHT22;10743;52.160;20.910;2024-02-15T10:18:13;23.60;37.50
21171;DHT22;10743;52.160;20.910;2024-02-15T10:20:41;23.60;37.50
21171;DHT22;10743;52.160;20.910;2024-02-15T10:23:14;23.60;37.50
21171;DHT22;10743;52.160;20.910;2024-02-15T10:25:45;23.60;37.50
21171;DHT22;10743;52.160;20.910;2024-02-15T10:28:13;23.60;37.80
21171;DHT22;10743;52.160;20.910;2024-02-15T10:30:43;23.70;37.60
21171;DHT22;10743;52.160;20.910;2024-02-15T10:33:20;23.70;37.60
21171;DHT22;10743;52.160;20.910;2024-02-15T10:36:05;23.70;38.30
21171;DHT22;10743;52.160;20.910;2024-02-15T10:38:35;23.70;37.70
21171;DHT22;10743;52.160;20.910;2024-02-15T10:41:07;23.70;37.80
21171;DHT22;10743;52.160;20.910;2024-02-15T10:43:39;23.70;37.80
21171;DHT22;10743;52.160;20.910;2024-02-15T10:46:11;23.70;37.70
21171;DHT22;10743;52.160;20.910;2024-02-15T10:48:39;23.80;37.90
21171;DHT22;10743;52.160;20.910;2024-02-15T10:51:10;23.80;37.90
21171;DHT22;10743;52.160;20.910;2024-02-15T10:53:47;23.80;38.00
21171;DHT22;10743;52.160;20.910;2024-02-15T10:56:34;23.80;38.10
21171;DHT22;10743;52.160;20.910;2024-02-15T10:59:18;23.80;38.10
21171;DHT22;10743;52.160;20.910;2024-02-15T11:01:54;23.80;38.80
21171;DHT22;10743;52.160;20.910;2024-02-15T11:04:27;23.90;38.10
21171;DHT22;10743;52.160;20.910;2024-02-15T11:06:59;24.00;37.90
21171;DHT22;10743;52.160;20.910;2024-02-15T11:09:29;24.00;37.90
21171;DHT22;10743;52.160;20.910;2024-02-15T11:11:57;24.00;38.00
21171;DHT22;10743;52.160;20.910;2024-02-15T11:14:29;24.00;38.10
21171;DHT22;10743;52.160;20.910;2024-02-15T11:16:59;24.00;38.20
21171;DHT22;10743;52.160;20.910;2024-02-15T11:22:19;24.20;38.10
21171;DHT22;10743;52.160;20.910;2024-02-15T11:24:51;24.10;38.10
21171;DHT22;10743;52.160;20.910;2024-02-15T11:27:27;24.10;38.30
21171;DHT22;10743;52.160;20.910;2024-02-15T11:29:59;24.10;38.50
21171;DHT22;10743;52.160;20.910;2024-02-15T11:32:48;24.10;38.60
21171;DHT22;10743;52.160;20.910;2024-02-15T11:35:24;24.10;38.40
21171;DHT22;10743;52.160;20.910;2024-02-15T11:37:55;24.20;38.50
21171;DHT22;10743;52.160;20.910;2024-02-15T11:43:08;24.30;38.60
21171;DHT22;10743;52.160;20.910;2024-02-15T11:45:37;24.30;38.60
21171;DHT22;10743;52.160;20.910;2024-02-15T11:48:09;24.40;38.70
21171;DHT22;10743;52.160;20.910;2024-02-15T11:50:38;24.50;38.40
21171;DHT22;10743;52.160;20.910;2024-02-15T11:53:09;24.60;38.30
21171;DHT22;10743;52.160;20.910;2024-02-15T11:55:39;24.70;38.10
21171;DHT22;10743;52.160;20.910;2024-02-15T11:58:09;24.70;38.00
21171;DHT22;10743;52.160;20.910;2024-02-15T12:00:38;24.70;38.20
21171;DHT22;10743;52.160;20.910;2024-02-15T12:03:25;24.80;38.10
21171;DHT22;10743;52.160;20.910;2024-02-15T12:06:17;24.80;38.00
21171;DHT22;10743;52.160;20.910;2024-02-15T12:09:23;24.90;38.10
21171;DHT22;10743;52.160;20.910;2024-02-15T12:12:11;24.90;38.10
21171;DHT22;10743;52.160;20.910;2024-02-15T12:15:00;25.00;37.80
21171;DHT22;10743;52.160;20.910;2024-02-15T12:17:47;25.10;37.90
21171;DHT22;10743;52.160;20.910;2024-02-15T12:20:33;25.10;37.80
21171;DHT22;10743;52.160;20.910;2024-02-15T12:23:01;25.20;37.70
21171;DHT22;10743;52.160;20.910;2024-02-15T12:25:28;25.20;37.50
21171;DHT22;10743;52.160;20.910;2024-02-15T12:28:00;25.20;37.60
21171;DHT22;10743;52.160;20.910;2024-02-15T12:30:35;25.30;37.40
21171;DHT22;10743;52.160;20.910;2024-02-15T12:33:12;25.30;37.30
21171;DHT22;10743;52.160;20.910;2024-02-15T12:35:42;25.30;37.10
21171;DHT22;10743;52.160;20.910;2024-02-15T12:38:12;25.30;37.20
21171;DHT22;10743;52.160;20.910;2024-02-15T12:40:44;25.40;37.20
21171;DHT22;10743;52.160;20.910;2024-02-15T12:43:15;25.40;37.20
21171;DHT22;10743;52.160;20.910;2024-02-15T12:45:43;25.40;37.20
21171;DHT22;10743;52.160;20.910;2024-02-15T12:48:10;25.40;37.10
21171;DHT22;10743;52.160;20.910;2024-02-15T12:50:38;25.40;37.10
21171;DHT22;10743;52.160;20.910;2024-02-15T12:53:05;25.40;37.00
21171;DHT22;10743;52.160;20.910;2024-02-15T12:55:37;25.40;37.10
21171;DHT22;10743;52.160;20.910;2024-02-15T12:58:13;25.40;37.10
21171;DHT22;10743;52.160;20.910;2024-02-15T13:00:42;25.50;37.20
21171;DHT22;10743;52.160;20.910;2024-02-15T13:03:12;25.50;37.20
21171;DHT22;10743;52.160;20.910;2024-02-15T13:05:41;25.60;37.20
21171;DHT22;10743;52.160;20.910;2024-02-15T13:08:09;25.60;37.40
21171;DHT22;10743;52.160;20.910;2024-02-15T13:10:44;25.60;37.40
21171;DHT22;10743;52.160;20.910;2024-02-15T13:13:11;25.60;37.40
21171;DHT22;10743;52.160;20.910;2024-02-15T13:15:43;25.70;37.20
21171;DHT22;10743;52.160;20.910;2024-02-15T13:18:11;25.70;37.00
21171;DHT22;10743;52.160;20.910;2024-02-15T13:20:41;25.70;37.20
21171;DHT22;10743;52.160;20.910;2024-02-15T13:23:10;25.80;37.30
21171;DHT22;10743;52.160;20.910;2024-02-15T13:25:50;25.80;37.10
21171;DHT22;10743;52.160;20.910;2024-02-15T13:28:19;25.80;37.10
21171;DHT22;10743;52.160;20.910;2024-02-15T13:30:46;25.80;37.10
21171;DHT22;10743;52.160;20.910;2024-02-15T13:33:16;25.90;37.10
21171;DHT22;10743;52.160;20.910;2024-02-15T13:35:44;25.90;37.10
21171;DHT22;10743;52.160;20.910;2024-02-15T13:38:12;26.00;37.20
21171;DHT22;10743;52.160;20.910;2024-02-15T13:40:50;26.00;37.10
21171;DHT22;10743;52.160;20.910;2024-02-15T13:43:18;26.10;36.90
21171;DHT22;10743;52.160;20.910;2024-02-15T13:45:46;26.10;36.90
21171;DHT22;10743;52.160;20.910;2024-02-15T13:48:13;26.10;36.90
21171;DHT22;10743;52.160;20.910;2024-02-15T13:50:42;26.10;36.90
21171;DHT22;10743;52.160;20.910;2024-02-15T13:53:12;26.20;36.80
21171;DHT22;10743;52.160;20.910;2024-02-15T13:55:41;26.20;36.80
21171;DHT22;10743;52.160;20.910;2024-02-15T13:58:08;26.30;36.70
21171;DHT22;10743;52.160;20.910;2024-02-15T14:00:40;26.30;36.70
21171;DHT22;10743;52.160;20.910;2024-02-15T14:03:11;26.30;36.70
21171;DHT22;10743;52.160;20.910;2024-02-15T14:05:38;26.30;36.50
21171;DHT22;10743;52.160;20.910;2024-02-15T14:08:08;26.40;36.40
21171;DHT22;10743;52.160;20.910;2024-02-15T14:10:38;26.40;36.40
21171;DHT22;10743;52.160;20.910;2024-02-15T14:13:05;26.40;36.40
21171;DHT22;10743;52.160;20.910;2024-02-15T14:15:34;26.40;36.40
21171;DHT22;10743;52.160;20.910;2024-02-15T14:18:06;26.40;36.40
21171;DHT22;10743;52.160;20.910;2024-02-15T14:20:34;26.50;36.20
21171;DHT22;10743;52.160;20.910;2024-02-15T14:23:02;26.50;36.00
21171;DHT22;10743;52.160;20.910;2024-02-15T14:25:33;26.50;36.10
21171;DHT22;10743;52.160;20.910;2024-02-15T14:28:01;26.50;36.00
21171;DHT22;10743;52.160;20.910;2024-02-15T14:30:29;26.50;36.00
21171;DHT22;10743;52.160;20.910;2024-02-15T14:33:14;26.50;36.00
21171;DHT22;10743;52.160;20.910;2024-02-15T14:35:46;26.40;36.70
21171;DHT22;10743;52.160;20.910;2024-02-15T14:38:13;26.40;36.10
21171;DHT22;10743;52.160;20.910;2024-02-15T14:40:47;26.40;35.70
21171;DHT22;10743;52.160;20.910;2024-02-15T14:43:24;26.40;35.50
21171;DHT22;10743;52.160;20.910;2024-02-15T14:45:54;26.40;35.40
21171;DHT22;10743;52.160;20.910;2024-02-15T14:48:23;26.40;35.20
21171;DHT22;10743;52.160;20.910;2024-02-15T14:50:52;26.40;35.00
21171;DHT22;10743;52.160;20.910;2024-02-15T14:53:20;26.40;35.10
21171;DHT22;10743;52.160;20.910;2024-02-15T14:55:48;26.40;35.20
21171;DHT22;10743;52.160;20.910;2024-02-15T14:58:16;26.30;35.10
21171;DHT22;10743;52.160;20.910;2024-02-15T15:00:48;26.30;35.10
21171;DHT22;10743;52.160;20.910;2024-02-15T15:03:16;26.30;35.20
21171;DHT22;10743;52.160;20.910;2024-02-15T15:05:44;26.20;35.10
21171;DHT22;10743;52.160;20.910;2024-02-15T15:08:30;26.20;35.10
21171;DHT22;10743;52.160;20.910;2024-02-15T15:11:17;26.20;35.10
21171;DHT22;10743;52.160;20.910;2024-02-15T15:14:02;26.20;35.00
21171;DHT22;10743;52.160;20.910;2024-02-15T15:16:31;26.20;34.60
21171;DHT22;10743;52.160;20.910;2024-02-15T15:18:59;26.20;34.40
21171;DHT22;10743;52.160;20.910;2024-02-15T15:21:26;26.20;34.50
21171;DHT22;10743;52.160;20.910;2024-02-15T15:23:55;26.10;34.40
21171;DHT22;10743;52.160;20.910;2024-02-15T15:26:23;26.10;34.40
21171;DHT22;10743;52.160;20.910;2024-02-15T15:28:50;26.10;34.30
21171;DHT22;10743;52.160;20.910;2024-02-15T15:31:18;26.10;34.20
21171;DHT22;10743;52.160;20.910;2024-02-15T15:33:48;26.10;34.20
21171;DHT22;10743;52.160;20.910;2024-02-15T15:36:16;26.10;34.10
21171;DHT22;10743;52.160;20.910;2024-02-15T15:38:46;26.00;33.90
21171;DHT22;10743;52.160;20.910;2024-02-15T15:41:15;26.00;33.80